METAR Data
IDs: Format: Raw Decoded Include TAF

Data at: 1708 UTC 03 Dec 2021

LYBT 031700Z 30007KT 9999 BKN027 04/03 Q1015 NOSIG